UAE47 OMDB-EDDF
Flight info
| Callsign | UAE47 |
|---|---|
| Flight time | N/A |
| Altitude | 34000 |
| Route | OMDB/30L N0499F340 RIDA2F RIDAP M557 TUMAK L602 ITNAS/N0493F360 L602 GADSI M860 SEPTU DCT VUSEB M860 NINVA UM860 ODALI UL852 NEGEM DCT MAXOV DCT IRLOX/N0475F380 DCT BALUX DCT TEKNO DCT ABETI DCT TAGAS DCT SUBEN DCT AKINI T161 DEBHI DEBH1A EDDF/25R |
| Aircraft | B77W/H-SDE1E2E3FGHIJ2J3J4J5M1RWXY/L |
Departure
| Time | N/A |
|---|---|
| Airport | Dubai International Airport (OMDB) |
Arrival
| Time | 2026-05-05 17:08 |
|---|---|
| Airport | Frankfurt Main Airport (EDDF) |
| Time | Latitude | Longitude | Altitude | Speed | Heading |
|---|---|---|---|---|---|
| 2026-05-05 13:56 | 40.95638 | 35.98794 | 33990 ft | 482 kts | 291° |
| 2026-05-05 13:56 | 40.97975 | 35.90400 | 33992 ft | 482 kts | 291° |
| 2026-05-05 13:57 | 41.00293 | 35.82050 | 33996 ft | 482 kts | 291° |
| 2026-05-05 13:57 | 41.02630 | 35.73607 | 33992 ft | 482 kts | 291° |
| 2026-05-05 13:58 | 41.04948 | 35.65207 | 33995 ft | 482 kts | 291° |
| 2026-05-05 13:58 | 41.07256 | 35.56810 | 33994 ft | 481 kts | 291° |
| 2026-05-05 13:59 | 41.10717 | 35.44172 | 33994 ft | 481 kts | 291° |
| 2026-05-05 14:00 | 41.14171 | 35.31491 | 33985 ft | 481 kts | 291° |
| 2026-05-05 14:00 | 41.16446 | 35.23106 | 34000 ft | 481 kts | 291° |
| 2026-05-05 14:01 | 41.18700 | 35.14770 | 34007 ft | 480 kts | 291° |
| 2026-05-05 14:01 | 41.20958 | 35.06387 | 34009 ft | 479 kts | 291° |
| 2026-05-05 14:02 | 41.23195 | 34.98061 | 34008 ft | 479 kts | 291° |
| 2026-05-05 14:02 | 41.25437 | 34.89681 | 34003 ft | 479 kts | 291° |
| 2026-05-05 14:03 | 41.27672 | 34.81310 | 33993 ft | 479 kts | 292° |
| 2026-05-05 14:03 | 41.29897 | 34.72959 | 33986 ft | 478 kts | 292° |
| 2026-05-05 14:04 | 41.32100 | 34.64664 | 33981 ft | 476 kts | 292° |
| 2026-05-05 14:04 | 41.34311 | 34.56308 | 33996 ft | 477 kts | 292° |
| 2026-05-05 14:05 | 41.36508 | 34.47978 | 33983 ft | 477 kts | 292° |
| 2026-05-05 14:05 | 41.38709 | 34.39601 | 33992 ft | 476 kts | 292° |
| 2026-05-05 14:06 | 41.40896 | 34.31244 | 33991 ft | 476 kts | 291° |
| 2026-05-05 14:06 | 41.43074 | 34.22831 | 34018 ft | 476 kts | 292° |
| 2026-05-05 14:07 | 41.45239 | 34.14437 | 34000 ft | 476 kts | 292° |
| 2026-05-05 14:07 | 41.47407 | 34.06026 | 34003 ft | 476 kts | 292° |
| 2026-05-05 14:08 | 41.49560 | 33.97658 | 34008 ft | 476 kts | 292° |
| 2026-05-05 14:08 | 41.51736 | 33.89166 | 33980 ft | 474 kts | 292° |
| 2026-05-05 14:09 | 41.53880 | 33.80772 | 34013 ft | 473 kts | 292° |
| 2026-05-05 14:09 | 41.55425 | 33.74706 | 33990 ft | 473 kts | 292° |
| 2026-05-05 14:10 | 41.58293 | 33.63402 | 33998 ft | 473 kts | 292° |
| 2026-05-05 14:11 | 41.60407 | 33.55042 | 33999 ft | 472 kts | 293° |
| 2026-05-05 14:11 | 41.62519 | 33.46664 | 33995 ft | 472 kts | 293° |
| 2026-05-05 14:12 | 41.64619 | 33.38289 | 33992 ft | 470 kts | 293° |
| 2026-05-05 14:12 | 41.66704 | 33.29949 | 33991 ft | 471 kts | 292° |
| 2026-05-05 14:13 | 41.68795 | 33.21551 | 33971 ft | 470 kts | 292° |
| 2026-05-05 14:13 | 41.70874 | 33.13171 | 33978 ft | 470 kts | 293° |
| 2026-05-05 14:14 | 41.72939 | 33.04821 | 33975 ft | 468 kts | 292° |
| 2026-05-05 14:14 | 41.74989 | 32.96505 | 34003 ft | 471 kts | 293° |
| 2026-05-05 14:15 | 41.77043 | 32.88142 | 34002 ft | 466 kts | 293° |
| 2026-05-05 14:15 | 41.79079 | 32.79829 | 34009 ft | 469 kts | 293° |
| 2026-05-05 14:16 | 41.81102 | 32.71532 | 34011 ft | 467 kts | 293° |
| 2026-05-05 14:16 | 41.83166 | 32.63032 | 34005 ft | 471 kts | 293° |
| 2026-05-05 14:17 | 41.85191 | 32.54656 | 34018 ft | 468 kts | 293° |
| 2026-05-05 14:17 | 41.87216 | 32.46250 | 34037 ft | 468 kts | 293° |
| 2026-05-05 14:18 | 41.89216 | 32.37867 | 34018 ft | 467 kts | 292° |
| 2026-05-05 14:18 | 41.91251 | 32.29385 | 34013 ft | 469 kts | 292° |
| 2026-05-05 14:19 | 41.93283 | 32.20922 | 34013 ft | 469 kts | 292° |
| 2026-05-05 14:19 | 41.95280 | 32.12510 | 34019 ft | 469 kts | 292° |
| 2026-05-05 14:20 | 41.97253 | 32.04162 | 34009 ft | 467 kts | 292° |
| 2026-05-05 14:20 | 41.98986 | 31.96804 | 34014 ft | 467 kts | 292° |
| 2026-05-05 14:21 | 42.00953 | 31.88429 | 34014 ft | 469 kts | 292° |
| 2026-05-05 14:21 | 42.02937 | 31.79966 | 34016 ft | 470 kts | 292° |
| 2026-05-05 14:22 | 42.04899 | 31.71571 | 34014 ft | 470 kts | 292° |
| 2026-05-05 14:22 | 42.06869 | 31.63104 | 34018 ft | 470 kts | 292° |
| 2026-05-05 14:23 | 42.08818 | 31.54699 | 34019 ft | 471 kts | 291° |
| 2026-05-05 14:23 | 42.10779 | 31.46210 | 34026 ft | 470 kts | 291° |
| 2026-05-05 14:24 | 42.12746 | 31.37666 | 34030 ft | 472 kts | 291° |
| 2026-05-05 14:24 | 42.14693 | 31.29169 | 34031 ft | 472 kts | 291° |
| 2026-05-05 14:25 | 42.16655 | 31.20573 | 34032 ft | 472 kts | 290° |
| 2026-05-05 14:25 | 42.18591 | 31.12059 | 34038 ft | 471 kts | 290° |
| 2026-05-05 14:26 | 42.19147 | 31.09605 | 34035 ft | 471 kts | 290° |
| 2026-05-05 14:27 | 42.21168 | 31.00676 | 34037 ft | 472 kts | 290° |
| 2026-05-05 14:27 | 42.23092 | 30.92139 | 34028 ft | 474 kts | 290° |
| 2026-05-05 14:28 | 42.24995 | 30.83660 | 34034 ft | 473 kts | 290° |
| 2026-05-05 14:28 | 42.26895 | 30.75163 | 34033 ft | 473 kts | 290° |
| 2026-05-05 14:29 | 42.28786 | 30.66671 | 34031 ft | 472 kts | 290° |
| 2026-05-05 14:29 | 42.30676 | 30.58154 | 34033 ft | 473 kts | 290° |
| 2026-05-05 14:30 | 42.32573 | 30.49570 | 34036 ft | 473 kts | 290° |
| 2026-05-05 14:30 | 42.34436 | 30.41107 | 34038 ft | 473 kts | 290° |
| 2026-05-05 14:31 | 42.36309 | 30.32564 | 34046 ft | 474 kts | 289° |
| 2026-05-05 14:31 | 42.38187 | 30.23964 | 34048 ft | 474 kts | 289° |
| 2026-05-05 14:32 | 42.40079 | 30.15264 | 34052 ft | 474 kts | 289° |
| 2026-05-05 14:32 | 42.41953 | 30.06612 | 34054 ft | 474 kts | 289° |
| 2026-05-05 14:33 | 42.43827 | 29.97922 | 34056 ft | 474 kts | 289° |
| 2026-05-05 14:33 | 42.45799 | 29.89364 | 34054 ft | 472 kts | 296° |
| 2026-05-05 14:34 | 42.49201 | 29.81695 | 34057 ft | 466 kts | 311° |
| 2026-05-05 14:34 | 42.53251 | 29.74790 | 34059 ft | 466 kts | 311° |
| 2026-05-05 14:35 | 42.57358 | 29.67768 | 34062 ft | 467 kts | 311° |
| 2026-05-05 14:35 | 42.61402 | 29.60817 | 34066 ft | 467 kts | 311° |
| 2026-05-05 14:36 | 42.65497 | 29.53752 | 34061 ft | 469 kts | 311° |
| 2026-05-05 14:36 | 42.69539 | 29.46754 | 34064 ft | 469 kts | 311° |
| 2026-05-05 14:37 | 42.73645 | 29.39627 | 34071 ft | 469 kts | 311° |
| 2026-05-05 14:37 | 42.77709 | 29.32555 | 34065 ft | 469 kts | 310° |
| 2026-05-05 14:38 | 42.81747 | 29.25510 | 34065 ft | 469 kts | 310° |
| 2026-05-05 14:38 | 42.85798 | 29.18426 | 34069 ft | 470 kts | 310° |
| 2026-05-05 14:39 | 42.89910 | 29.11216 | 34069 ft | 471 kts | 310° |
| 2026-05-05 14:39 | 42.93938 | 29.04137 | 34073 ft | 472 kts | 310° |
| 2026-05-05 14:40 | 42.98031 | 28.96926 | 34073 ft | 472 kts | 310° |
| 2026-05-05 14:40 | 43.02067 | 28.89797 | 34067 ft | 472 kts | 310° |
| 2026-05-05 14:41 | 43.06099 | 28.82659 | 34069 ft | 472 kts | 310° |
| 2026-05-05 14:41 | 43.10136 | 28.75496 | 34067 ft | 473 kts | 310° |
| 2026-05-05 14:42 | 43.14175 | 28.68311 | 34072 ft | 475 kts | 309° |
| 2026-05-05 14:42 | 43.18192 | 28.61148 | 34068 ft | 475 kts | 309° |
| 2026-05-05 14:43 | 43.22222 | 28.53944 | 34060 ft | 475 kts | 309° |
| 2026-05-05 14:43 | 43.26257 | 28.46714 | 34060 ft | 475 kts | 309° |
| 2026-05-05 14:44 | 43.30278 | 28.39490 | 34056 ft | 475 kts | 309° |
| 2026-05-05 14:44 | 43.34301 | 28.32246 | 34059 ft | 476 kts | 308° |
| 2026-05-05 14:45 | 43.38320 | 28.24989 | 34058 ft | 477 kts | 308° |
| 2026-05-05 14:45 | 43.42321 | 28.17749 | 34053 ft | 478 kts | 308° |
| 2026-05-05 14:46 | 43.46341 | 28.10457 | 34050 ft | 479 kts | 308° |
| 2026-05-05 14:46 | 43.50378 | 28.03114 | 34051 ft | 479 kts | 308° |
| 2026-05-05 14:47 | 43.54380 | 27.95818 | 34049 ft | 478 kts | 308° |
| 2026-05-05 14:47 | 43.58388 | 27.88491 | 34038 ft | 477 kts | 308° |
| 2026-05-05 14:48 | 43.62426 | 27.81186 | 34040 ft | 477 kts | 310° |
| 2026-05-05 14:48 | 43.66607 | 27.74127 | 34036 ft | 477 kts | 311° |
| 2026-05-05 14:49 | 43.70829 | 27.66981 | 34041 ft | 476 kts | 311° |
| 2026-05-05 14:49 | 43.75025 | 27.59842 | 34035 ft | 476 kts | 311° |
| 2026-05-05 14:50 | 43.79169 | 27.52766 | 34029 ft | 474 kts | 311° |
| 2026-05-05 14:50 | 43.83332 | 27.45635 | 34032 ft | 475 kts | 311° |
| 2026-05-05 14:51 | 43.87503 | 27.38470 | 34028 ft | 474 kts | 311° |
| 2026-05-05 14:51 | 43.91639 | 27.31348 | 34026 ft | 473 kts | 310° |
| 2026-05-05 14:52 | 43.95797 | 27.24167 | 34024 ft | 472 kts | 310° |
| 2026-05-05 14:52 | 43.99888 | 27.17086 | 34018 ft | 473 kts | 310° |
| 2026-05-05 14:53 | 44.04031 | 27.09896 | 34011 ft | 472 kts | 310° |
| 2026-05-05 14:53 | 44.08121 | 27.02778 | 34022 ft | 470 kts | 310° |
| 2026-05-05 14:54 | 44.11823 | 26.95244 | 34023 ft | 472 kts | 305° |
| 2026-05-05 14:54 | 44.15430 | 26.87586 | 34016 ft | 470 kts | 305° |
| 2026-05-05 14:55 | 44.19006 | 26.79976 | 34012 ft | 470 kts | 305° |
| 2026-05-05 14:55 | 44.22570 | 26.72369 | 34014 ft | 469 kts | 305° |
| 2026-05-05 14:56 | 44.26125 | 26.64764 | 34014 ft | 468 kts | 305° |
| 2026-05-05 14:56 | 44.29667 | 26.57164 | 34000 ft | 466 kts | 306° |
| 2026-05-05 14:57 | 44.33196 | 26.49572 | 34004 ft | 464 kts | 306° |
| 2026-05-05 14:57 | 44.36710 | 26.41996 | 34006 ft | 465 kts | 306° |
| 2026-05-05 14:58 | 44.40232 | 26.34378 | 34008 ft | 462 kts | 305° |
| 2026-05-05 14:58 | 44.43721 | 26.26814 | 34012 ft | 462 kts | 306° |
| 2026-05-05 14:59 | 44.47207 | 26.19237 | 34019 ft | 462 kts | 306° |
| 2026-05-05 14:59 | 44.50658 | 26.11714 | 34015 ft | 459 kts | 306° |
| 2026-05-05 15:00 | 44.53544 | 26.05410 | 34013 ft | 459 kts | 306° |
| 2026-05-05 15:00 | 44.57571 | 25.96589 | 34011 ft | 455 kts | 306° |
| 2026-05-05 15:01 | 44.60999 | 25.89060 | 34024 ft | 456 kts | 306° |
| 2026-05-05 15:01 | 44.64391 | 25.81590 | 34011 ft | 455 kts | 306° |
| 2026-05-05 15:02 | 44.67796 | 25.74070 | 34006 ft | 456 kts | 306° |
| 2026-05-05 15:02 | 44.71204 | 25.66527 | 34005 ft | 455 kts | 306° |
| 2026-05-05 15:03 | 44.74597 | 25.58995 | 34008 ft | 457 kts | 306° |
| 2026-05-05 15:03 | 44.78010 | 25.51400 | 34007 ft | 456 kts | 306° |
| 2026-05-05 15:04 | 44.81391 | 25.43855 | 34009 ft | 456 kts | 306° |
| 2026-05-05 15:04 | 44.84792 | 25.36245 | 34015 ft | 457 kts | 306° |
| 2026-05-05 15:05 | 44.89881 | 25.24821 | 34016 ft | 457 kts | 305° |
| 2026-05-05 15:06 | 44.93283 | 25.17159 | 34017 ft | 457 kts | 305° |
| 2026-05-05 15:06 | 44.96664 | 25.09525 | 34017 ft | 458 kts | 305° |
| 2026-05-05 15:07 | 45.00031 | 25.01898 | 34018 ft | 456 kts | 306° |
| 2026-05-05 15:07 | 45.03377 | 24.94301 | 34020 ft | 456 kts | 305° |
| 2026-05-05 15:08 | 45.06747 | 24.86630 | 34015 ft | 457 kts | 305° |
| 2026-05-05 15:08 | 45.10083 | 24.79012 | 34012 ft | 456 kts | 305° |
| 2026-05-05 15:09 | 45.13440 | 24.71328 | 34033 ft | 455 kts | 305° |
| 2026-05-05 15:09 | 45.16769 | 24.63687 | 34026 ft | 456 kts | 305° |
| 2026-05-05 15:10 | 45.20103 | 24.56015 | 34016 ft | 455 kts | 304° |
| 2026-05-05 15:10 | 45.23417 | 24.48368 | 34016 ft | 455 kts | 305° |
| 2026-05-05 15:11 | 45.26718 | 24.40730 | 34017 ft | 456 kts | 304° |
| 2026-05-05 15:11 | 45.30065 | 24.32964 | 34024 ft | 457 kts | 304° |
| 2026-05-05 15:12 | 45.33385 | 24.25240 | 34021 ft | 455 kts | 303° |
| 2026-05-05 15:12 | 45.36692 | 24.17527 | 34027 ft | 456 kts | 303° |
| 2026-05-05 15:13 | 45.39999 | 24.09791 | 34035 ft | 455 kts | 303° |
| 2026-05-05 15:13 | 45.43293 | 24.02061 | 34044 ft | 454 kts | 303° |
| 2026-05-05 15:14 | 45.46555 | 23.94388 | 34046 ft | 454 kts | 303° |
| 2026-05-05 15:14 | 45.49851 | 23.86616 | 34052 ft | 454 kts | 303° |
| 2026-05-05 15:15 | 45.53131 | 23.78858 | 34061 ft | 455 kts | 303° |
| 2026-05-05 15:15 | 45.56404 | 23.71093 | 34059 ft | 454 kts | 303° |
| 2026-05-05 15:16 | 45.59672 | 23.63322 | 34053 ft | 454 kts | 303° |
| 2026-05-05 15:16 | 45.62933 | 23.55544 | 34046 ft | 455 kts | 303° |
| 2026-05-05 15:17 | 45.66202 | 23.47726 | 34040 ft | 455 kts | 303° |
| 2026-05-05 15:17 | 45.69458 | 23.39915 | 34033 ft | 454 kts | 303° |
| 2026-05-05 15:18 | 45.72711 | 23.32093 | 34021 ft | 453 kts | 302° |
| 2026-05-05 15:18 | 45.75957 | 23.24263 | 33994 ft | 454 kts | 302° |
| 2026-05-05 15:19 | 45.79185 | 23.16455 | 33987 ft | 453 kts | 302° |
| 2026-05-05 15:19 | 45.82417 | 23.08617 | 33983 ft | 454 kts | 302° |
| 2026-05-05 15:20 | 45.85630 | 23.00801 | 33981 ft | 453 kts | 302° |
| 2026-05-05 15:20 | 45.88833 | 22.92989 | 33986 ft | 453 kts | 302° |
| 2026-05-05 15:21 | 45.92043 | 22.85137 | 33987 ft | 454 kts | 302° |
| 2026-05-05 15:21 | 45.95256 | 22.77255 | 33987 ft | 454 kts | 302° |
| 2026-05-05 15:22 | 45.98447 | 22.69406 | 33983 ft | 454 kts | 302° |
| 2026-05-05 15:22 | 46.01656 | 22.61489 | 33976 ft | 456 kts | 301° |
| 2026-05-05 15:23 | 46.04858 | 22.53567 | 33981 ft | 456 kts | 301° |
| 2026-05-05 15:23 | 46.08065 | 22.45611 | 33987 ft | 457 kts | 301° |
| 2026-05-05 15:24 | 46.11270 | 22.37636 | 33983 ft | 457 kts | 301° |
| 2026-05-05 15:24 | 46.14458 | 22.29680 | 33980 ft | 457 kts | 300° |
| 2026-05-05 15:25 | 46.17652 | 22.21687 | 33973 ft | 457 kts | 300° |
| 2026-05-05 15:25 | 46.20834 | 22.13697 | 33978 ft | 458 kts | 300° |
| 2026-05-05 15:26 | 46.24000 | 22.05729 | 33982 ft | 458 kts | 300° |
| 2026-05-05 15:26 | 46.27186 | 21.97685 | 33979 ft | 458 kts | 300° |
| 2026-05-05 15:27 | 46.30348 | 21.89677 | 33961 ft | 458 kts | 300° |
| 2026-05-05 15:27 | 46.33498 | 21.81677 | 33952 ft | 458 kts | 300° |
| 2026-05-05 15:28 | 46.36649 | 21.73654 | 33940 ft | 458 kts | 300° |
| 2026-05-05 15:28 | 46.39791 | 21.65626 | 33936 ft | 457 kts | 300° |
| 2026-05-05 15:29 | 46.42932 | 21.57581 | 33934 ft | 457 kts | 300° |
| 2026-05-05 15:29 | 46.46067 | 21.49522 | 33926 ft | 458 kts | 300° |
| 2026-05-05 15:30 | 46.49180 | 21.41501 | 33928 ft | 457 kts | 300° |
| 2026-05-05 15:30 | 46.52301 | 21.33435 | 33925 ft | 458 kts | 298° |
| 2026-05-05 15:31 | 46.55439 | 21.25298 | 33928 ft | 457 kts | 298° |
| 2026-05-05 15:31 | 46.58546 | 21.17219 | 33923 ft | 458 kts | 298° |
| 2026-05-05 15:32 | 46.61647 | 21.09133 | 33923 ft | 457 kts | 298° |
| 2026-05-05 15:32 | 46.64748 | 21.01021 | 33920 ft | 458 kts | 298° |
| 2026-05-05 15:33 | 46.67824 | 20.92950 | 33920 ft | 458 kts | 298° |
| 2026-05-05 15:33 | 46.70924 | 20.84793 | 33924 ft | 458 kts | 298° |
| 2026-05-05 15:34 | 46.74003 | 20.76667 | 33924 ft | 458 kts | 298° |
| 2026-05-05 15:34 | 46.77071 | 20.68541 | 33923 ft | 457 kts | 298° |
| 2026-05-05 15:35 | 46.80140 | 20.60392 | 33918 ft | 457 kts | 298° |
| 2026-05-05 15:35 | 46.83198 | 20.52247 | 33918 ft | 458 kts | 298° |
| 2026-05-05 15:36 | 46.86249 | 20.44097 | 33917 ft | 458 kts | 298° |
| 2026-05-05 15:36 | 46.89310 | 20.35894 | 33916 ft | 457 kts | 298° |
| 2026-05-05 15:37 | 46.92351 | 20.27720 | 33918 ft | 458 kts | 297° |
| 2026-05-05 15:37 | 46.95392 | 20.19523 | 33923 ft | 458 kts | 297° |
| 2026-05-05 15:38 | 46.98443 | 20.11272 | 33923 ft | 458 kts | 297° |
| 2026-05-05 15:38 | 47.01476 | 20.03044 | 33920 ft | 459 kts | 297° |
| 2026-05-05 15:39 | 47.04519 | 19.94762 | 33914 ft | 458 kts | 297° |
| 2026-05-05 15:39 | 47.07544 | 19.86504 | 33911 ft | 458 kts | 297° |
| 2026-05-05 15:40 | 47.10564 | 19.78237 | 33909 ft | 458 kts | 297° |
| 2026-05-05 15:40 | 47.13571 | 19.69977 | 33904 ft | 458 kts | 297° |
| 2026-05-05 15:41 | 47.16568 | 19.61720 | 33895 ft | 458 kts | 297° |
| 2026-05-05 15:41 | 47.19562 | 19.53446 | 33896 ft | 458 kts | 297° |
| 2026-05-05 15:42 | 47.22564 | 19.45124 | 33895 ft | 458 kts | 297° |
| 2026-05-05 15:42 | 47.25526 | 19.36886 | 33900 ft | 458 kts | 297° |
| 2026-05-05 15:43 | 47.28508 | 19.28567 | 33905 ft | 458 kts | 296° |
| 2026-05-05 15:43 | 47.31470 | 19.20278 | 33908 ft | 457 kts | 296° |
| 2026-05-05 15:44 | 47.34053 | 19.11663 | 33909 ft | 455 kts | 285° |
| 2026-05-05 15:44 | 47.35725 | 19.02699 | 33912 ft | 454 kts | 284° |
| 2026-05-05 15:45 | 47.37335 | 18.93663 | 33914 ft | 455 kts | 284° |
| 2026-05-05 15:45 | 47.38912 | 18.84595 | 33916 ft | 454 kts | 283° |
| 2026-05-05 15:46 | 47.40458 | 18.75571 | 33901 ft | 454 kts | 283° |
| 2026-05-05 15:46 | 47.41999 | 18.66487 | 33893 ft | 454 kts | 283° |
| 2026-05-05 15:47 | 47.43520 | 18.57452 | 33891 ft | 454 kts | 283° |
| 2026-05-05 15:47 | 47.45046 | 18.48325 | 33887 ft | 453 kts | 283° |
| 2026-05-05 15:48 | 47.46555 | 18.39247 | 33885 ft | 453 kts | 283° |
| 2026-05-05 15:48 | 47.48046 | 18.30223 | 33889 ft | 453 kts | 283° |
| 2026-05-05 15:49 | 47.49541 | 18.21126 | 33880 ft | 454 kts | 283° |
| 2026-05-05 15:49 | 47.51018 | 18.12085 | 33881 ft | 452 kts | 283° |
| 2026-05-05 15:50 | 47.52491 | 18.03026 | 33876 ft | 452 kts | 283° |
| 2026-05-05 15:50 | 47.53951 | 17.93994 | 33877 ft | 452 kts | 283° |
| 2026-05-05 15:51 | 47.55406 | 17.84949 | 33883 ft | 452 kts | 283° |
| 2026-05-05 15:51 | 47.56861 | 17.75853 | 33888 ft | 452 kts | 283° |
| 2026-05-05 15:52 | 47.58305 | 17.66773 | 33887 ft | 452 kts | 283° |
| 2026-05-05 15:52 | 47.59742 | 17.57684 | 33867 ft | 452 kts | 283° |
| 2026-05-05 15:53 | 47.61178 | 17.48556 | 33864 ft | 452 kts | 283° |
| 2026-05-05 15:53 | 47.62592 | 17.39496 | 33854 ft | 452 kts | 282° |
| 2026-05-05 15:54 | 47.63849 | 17.30366 | 33850 ft | 452 kts | 280° |
| 2026-05-05 15:54 | 47.65086 | 17.21223 | 33839 ft | 452 kts | 280° |
| 2026-05-05 15:55 | 47.66321 | 17.12087 | 33836 ft | 452 kts | 281° |
| 2026-05-05 15:55 | 47.67585 | 17.02870 | 33820 ft | 452 kts | 283° |
| 2026-05-05 15:56 | 47.69735 | 16.94126 | 33831 ft | 454 kts | 291° |
| 2026-05-05 15:56 | 47.72138 | 16.85450 | 33818 ft | 453 kts | 291° |
| 2026-05-05 15:57 | 47.74535 | 16.76754 | 33798 ft | 453 kts | 291° |
| 2026-05-05 15:57 | 47.76914 | 16.68083 | 33807 ft | 453 kts | 291° |
| 2026-05-05 15:58 | 47.79282 | 16.59413 | 33800 ft | 453 kts | 291° |
| 2026-05-05 15:58 | 47.81639 | 16.50752 | 33799 ft | 454 kts | 291° |
| 2026-05-05 15:59 | 47.84006 | 16.42020 | 33784 ft | 453 kts | 291° |
| 2026-05-05 15:59 | 47.86362 | 16.33294 | 33787 ft | 454 kts | 290° |
| 2026-05-05 16:00 | 47.88730 | 16.24493 | 33783 ft | 453 kts | 290° |
| 2026-05-05 16:00 | 47.91066 | 16.15778 | 33772 ft | 454 kts | 290° |
| 2026-05-05 16:01 | 47.93412 | 16.06990 | 33767 ft | 454 kts | 290° |
| 2026-05-05 16:01 | 47.95741 | 15.98236 | 33772 ft | 453 kts | 290° |
| 2026-05-05 16:02 | 47.98064 | 15.89469 | 33759 ft | 453 kts | 290° |
| 2026-05-05 16:02 | 48.00378 | 15.80704 | 33754 ft | 454 kts | 290° |
| 2026-05-05 16:03 | 48.02690 | 15.71915 | 33752 ft | 454 kts | 290° |
| 2026-05-05 16:03 | 48.04810 | 15.63052 | 33758 ft | 453 kts | 284° |
| 2026-05-05 16:04 | 48.06461 | 15.53948 | 33765 ft | 454 kts | 284° |
| 2026-05-05 16:04 | 48.08100 | 15.44802 | 33766 ft | 452 kts | 284° |
| 2026-05-05 16:05 | 48.09719 | 15.35717 | 33758 ft | 452 kts | 284° |
| 2026-05-05 16:05 | 48.11338 | 15.26591 | 33748 ft | 453 kts | 283° |
| 2026-05-05 16:06 | 48.12941 | 15.17505 | 33746 ft | 452 kts | 283° |
| 2026-05-05 16:06 | 48.14539 | 15.08402 | 33740 ft | 452 kts | 283° |
| 2026-05-05 16:07 | 48.16133 | 14.99271 | 33740 ft | 453 kts | 283° |
| 2026-05-05 16:07 | 48.17720 | 14.90139 | 33735 ft | 454 kts | 283° |
| 2026-05-05 16:08 | 48.19298 | 14.81009 | 33734 ft | 453 kts | 283° |
| 2026-05-05 16:08 | 48.20868 | 14.71877 | 33733 ft | 453 kts | 283° |
| 2026-05-05 16:09 | 48.22434 | 14.62722 | 33726 ft | 452 kts | 283° |
| 2026-05-05 16:09 | 48.23991 | 14.53572 | 33722 ft | 452 kts | 283° |
| 2026-05-05 16:10 | 48.25544 | 14.44398 | 33719 ft | 452 kts | 283° |
| 2026-05-05 16:10 | 48.27092 | 14.35204 | 33724 ft | 452 kts | 283° |
| 2026-05-05 16:11 | 48.28628 | 14.26031 | 33733 ft | 452 kts | 282° |
| 2026-05-05 16:12 | 48.31678 | 14.07669 | 33732 ft | 453 kts | 282° |
| 2026-05-05 16:13 | 48.35462 | 13.84608 | 33753 ft | 454 kts | 282° |
| 2026-05-05 16:13 | 48.36959 | 13.75401 | 33747 ft | 454 kts | 282° |
| 2026-05-05 16:14 | 48.39935 | 13.56934 | 33741 ft | 455 kts | 282° |
| 2026-05-05 16:15 | 48.42892 | 13.38384 | 33746 ft | 456 kts | 282° |
| 2026-05-05 16:16 | 48.47150 | 13.20270 | 33755 ft | 458 kts | 289° |
| 2026-05-05 16:17 | 48.50700 | 13.06848 | 33754 ft | 460 kts | 289° |
| 2026-05-05 16:18 | 48.54230 | 12.93379 | 33759 ft | 460 kts | 289° |
| 2026-05-05 16:19 | 48.57742 | 12.79880 | 33760 ft | 460 kts | 289° |
| 2026-05-05 16:19 | 48.61237 | 12.66357 | 33773 ft | 461 kts | 289° |
| 2026-05-05 16:20 | 48.65897 | 12.48202 | 33764 ft | 463 kts | 288° |
| 2026-05-05 16:22 | 48.71698 | 12.25393 | 33775 ft | 464 kts | 287° |
| 2026-05-05 16:23 | 48.75565 | 12.06772 | 33760 ft | 462 kts | 276° |
| 2026-05-05 16:23 | 48.77138 | 11.92361 | 33766 ft | 463 kts | 276° |
| 2026-05-05 16:24 | 48.78176 | 11.82693 | 33771 ft | 464 kts | 276° |
| 2026-05-05 16:25 | 48.79715 | 11.68171 | 33784 ft | 466 kts | 276° |
| 2026-05-05 16:25 | 48.81236 | 11.53601 | 33777 ft | 467 kts | 276° |
| 2026-05-05 16:26 | 48.82504 | 11.41276 | 33787 ft | 469 kts | 276° |
| 2026-05-05 16:27 | 48.83390 | 11.32618 | 33793 ft | 471 kts | 276° |
| 2026-05-05 16:27 | 48.85472 | 11.23140 | 33796 ft | 481 kts | 294° |
| 2026-05-05 16:28 | 48.89477 | 11.14894 | 33814 ft | 489 kts | 313° |
| 2026-05-05 16:28 | 48.94495 | 11.07866 | 33802 ft | 492 kts | 315° |
| 2026-05-05 16:29 | 48.99540 | 11.00861 | 33429 ft | 486 kts | 315° |
| 2026-05-05 16:29 | 49.02018 | 10.97401 | 32550 ft | 488 kts | 316° |
| 2026-05-05 16:29 | 49.04494 | 10.93931 | 31619 ft | 492 kts | 316° |
| 2026-05-05 16:30 | 49.07069 | 10.90315 | 30700 ft | 494 kts | 316° |
| 2026-05-05 16:30 | 49.09567 | 10.86800 | 30037 ft | 491 kts | 316° |
| 2026-05-05 16:30 | 49.12093 | 10.83235 | 29571 ft | 484 kts | 316° |
| 2026-05-05 16:30 | 49.14557 | 10.79753 | 29051 ft | 479 kts | 316° |
| 2026-05-05 16:31 | 49.16968 | 10.76339 | 28505 ft | 474 kts | 316° |
| 2026-05-05 16:31 | 49.19403 | 10.72885 | 27949 ft | 470 kts | 316° |
| 2026-05-05 16:31 | 49.21722 | 10.69436 | 27406 ft | 465 kts | 313° |
| 2026-05-05 16:31 | 49.23944 | 10.65915 | 26854 ft | 460 kts | 312° |
| 2026-05-05 16:32 | 49.26174 | 10.62368 | 26296 ft | 456 kts | 312° |
| 2026-05-05 16:32 | 49.28374 | 10.58872 | 25741 ft | 453 kts | 313° |
| 2026-05-05 16:32 | 49.30555 | 10.55408 | 25195 ft | 449 kts | 313° |
| 2026-05-05 16:32 | 49.32726 | 10.51960 | 24632 ft | 446 kts | 313° |
| 2026-05-05 16:33 | 49.34875 | 10.48546 | 24072 ft | 442 kts | 312° |
| 2026-05-05 16:33 | 49.36840 | 10.44934 | 23529 ft | 436 kts | 304° |
| 2026-05-05 16:33 | 49.38587 | 10.41155 | 23169 ft | 439 kts | 303° |
| 2026-05-05 16:33 | 49.40356 | 10.37278 | 22795 ft | 442 kts | 303° |
| 2026-05-05 16:34 | 49.42124 | 10.33398 | 22388 ft | 437 kts | 302° |
| 2026-05-05 16:34 | 49.43849 | 10.29609 | 21990 ft | 432 kts | 302° |
| 2026-05-05 16:34 | 49.45571 | 10.25821 | 21594 ft | 428 kts | 302° |
| 2026-05-05 16:34 | 49.47281 | 10.22057 | 21204 ft | 426 kts | 302° |
| 2026-05-05 16:35 | 49.48968 | 10.18337 | 20814 ft | 423 kts | 302° |
| 2026-05-05 16:35 | 49.50642 | 10.14640 | 20429 ft | 420 kts | 302° |
| 2026-05-05 16:35 | 49.52465 | 10.11088 | 20032 ft | 419 kts | 311° |
| 2026-05-05 16:35 | 49.54649 | 10.08106 | 19643 ft | 419 kts | 322° |
| 2026-05-05 16:36 | 49.57117 | 10.05783 | 19253 ft | 417 kts | 332° |
| 2026-05-05 16:36 | 49.59708 | 10.03798 | 18841 ft | 413 kts | 333° |
| 2026-05-05 16:36 | 49.62284 | 10.01856 | 18372 ft | 409 kts | 333° |
| 2026-05-05 16:36 | 49.64841 | 9.99928 | 17897 ft | 404 kts | 333° |
| 2026-05-05 16:37 | 49.67368 | 9.98018 | 17429 ft | 400 kts | 333° |
| 2026-05-05 16:37 | 49.69856 | 9.96136 | 16964 ft | 396 kts | 333° |
| 2026-05-05 16:37 | 49.72315 | 9.94270 | 16489 ft | 392 kts | 332° |
| 2026-05-05 16:37 | 49.74666 | 9.92257 | 16034 ft | 388 kts | 328° |
| 2026-05-05 16:38 | 49.76989 | 9.90175 | 15569 ft | 384 kts | 328° |
| 2026-05-05 16:38 | 49.79295 | 9.88113 | 15106 ft | 381 kts | 328° |
| 2026-05-05 16:38 | 49.81605 | 9.86052 | 14640 ft | 378 kts | 329° |
| 2026-05-05 16:38 | 49.83890 | 9.84018 | 14171 ft | 375 kts | 329° |
| 2026-05-05 16:39 | 49.86128 | 9.82028 | 13711 ft | 372 kts | 329° |
| 2026-05-05 16:39 | 49.88400 | 9.80007 | 13242 ft | 369 kts | 329° |
| 2026-05-05 16:39 | 49.90635 | 9.78072 | 12781 ft | 367 kts | 331° |
| 2026-05-05 16:39 | 49.92794 | 9.76062 | 12322 ft | 363 kts | 324° |
| 2026-05-05 16:40 | 49.94883 | 9.73776 | 11854 ft | 360 kts | 323° |
| 2026-05-05 16:40 | 49.96906 | 9.71520 | 11397 ft | 358 kts | 323° |
| 2026-05-05 16:40 | 49.98910 | 9.69281 | 10981 ft | 354 kts | 323° |
| 2026-05-05 16:40 | 50.00921 | 9.67033 | 10563 ft | 350 kts | 323° |
| 2026-05-05 16:41 | 50.02897 | 9.64819 | 10147 ft | 347 kts | 323° |
| 2026-05-05 16:41 | 50.04836 | 9.62648 | 9732 ft | 343 kts | 323° |
| 2026-05-05 16:41 | 50.06785 | 9.60450 | 9305 ft | 340 kts | 323° |
| 2026-05-05 16:41 | 50.08700 | 9.58287 | 8889 ft | 337 kts | 323° |
| 2026-05-05 16:42 | 50.10605 | 9.56129 | 8459 ft | 334 kts | 323° |
| 2026-05-05 16:42 | 50.12470 | 9.54018 | 8041 ft | 331 kts | 323° |
| 2026-05-05 16:42 | 50.14326 | 9.51919 | 7579 ft | 327 kts | 323° |
| 2026-05-05 16:42 | 50.16147 | 9.49857 | 7118 ft | 314 kts | 323° |
| 2026-05-05 16:43 | 50.17889 | 9.47885 | 6699 ft | 302 kts | 323° |
| 2026-05-05 16:43 | 50.19559 | 9.45998 | 6279 ft | 292 kts | 323° |
| 2026-05-05 16:43 | 50.21196 | 9.44147 | 5864 ft | 283 kts | 323° |
| 2026-05-05 16:43 | 50.22772 | 9.42369 | 5515 ft | 278 kts | 323° |
| 2026-05-05 16:44 | 50.24351 | 9.40589 | 5096 ft | 279 kts | 323° |
| 2026-05-05 16:44 | 50.25903 | 9.38837 | 4988 ft | 269 kts | 323° |
| 2026-05-05 16:44 | 50.27419 | 9.37165 | 4972 ft | 265 kts | 328° |
| 2026-05-05 16:44 | 50.29181 | 9.36285 | 4965 ft | 269 kts | 356° |
| 2026-05-05 16:45 | 50.31019 | 9.36795 | 4958 ft | 273 kts | 24° |
| 2026-05-05 16:45 | 50.32527 | 9.38619 | 4958 ft | 274 kts | 52° |
| 2026-05-05 16:45 | 50.33478 | 9.41198 | 4981 ft | 276 kts | 63° |
| 2026-05-05 16:45 | 50.34320 | 9.43918 | 4974 ft | 275 kts | 64° |
| 2026-05-05 16:46 | 50.35144 | 9.46626 | 4973 ft | 275 kts | 64° |
| 2026-05-05 16:46 | 50.35973 | 9.49356 | 4974 ft | 276 kts | 64° |
| 2026-05-05 16:46 | 50.36800 | 9.52075 | 4975 ft | 275 kts | 64° |
| 2026-05-05 16:46 | 50.37624 | 9.54777 | 4975 ft | 275 kts | 64° |
| 2026-05-05 16:47 | 50.38451 | 9.57483 | 4975 ft | 276 kts | 64° |
| 2026-05-05 16:47 | 50.39281 | 9.60200 | 4970 ft | 275 kts | 64° |
| 2026-05-05 16:47 | 50.40115 | 9.62940 | 4975 ft | 275 kts | 64° |
| 2026-05-05 16:47 | 50.40937 | 9.65636 | 4973 ft | 275 kts | 64° |
| 2026-05-05 16:48 | 50.41765 | 9.68371 | 4972 ft | 275 kts | 64° |
| 2026-05-05 16:48 | 50.42592 | 9.71103 | 4973 ft | 274 kts | 64° |
| 2026-05-05 16:48 | 50.43406 | 9.73786 | 4972 ft | 273 kts | 64° |
| 2026-05-05 16:48 | 50.44228 | 9.76499 | 4971 ft | 273 kts | 64° |
| 2026-05-05 16:49 | 50.45043 | 9.79196 | 4974 ft | 273 kts | 64° |
| 2026-05-05 16:49 | 50.45853 | 9.81879 | 4979 ft | 273 kts | 64° |
| 2026-05-05 16:49 | 50.46666 | 9.84584 | 4972 ft | 272 kts | 64° |
| 2026-05-05 16:49 | 50.47483 | 9.87279 | 4971 ft | 269 kts | 64° |
| 2026-05-05 16:50 | 50.48294 | 9.89966 | 4975 ft | 274 kts | 64° |
| 2026-05-05 16:50 | 50.48880 | 9.92828 | 4963 ft | 273 kts | 85° |
| 2026-05-05 16:50 | 50.48595 | 9.95775 | 4963 ft | 274 kts | 113° |
| 2026-05-05 16:50 | 50.47488 | 9.98154 | 4958 ft | 272 kts | 141° |
| 2026-05-05 16:51 | 50.45806 | 9.99457 | 4962 ft | 271 kts | 168° |
| 2026-05-05 16:51 | 50.43918 | 9.99384 | 4951 ft | 271 kts | 197° |
| 2026-05-05 16:51 | 50.42295 | 9.97989 | 4956 ft | 269 kts | 221° |
| 2026-05-05 16:51 | 50.40883 | 9.96003 | 4960 ft | 267 kts | 224° |
| 2026-05-05 16:52 | 50.39535 | 9.94037 | 4961 ft | 268 kts | 224° |
| 2026-05-05 16:52 | 50.38262 | 9.91876 | 4951 ft | 266 kts | 240° |
| 2026-05-05 16:52 | 50.37566 | 9.89191 | 4964 ft | 268 kts | 253° |
| 2026-05-05 16:52 | 50.37018 | 9.86406 | 4967 ft | 267 kts | 254° |
| 2026-05-05 16:53 | 50.36477 | 9.83589 | 4968 ft | 265 kts | 254° |
| 2026-05-05 16:53 | 50.35949 | 9.80831 | 4966 ft | 264 kts | 254° |
| 2026-05-05 16:53 | 50.35415 | 9.78055 | 4958 ft | 264 kts | 254° |
| 2026-05-05 16:53 | 50.34893 | 9.75324 | 4967 ft | 265 kts | 254° |
| 2026-05-05 16:54 | 50.34363 | 9.72518 | 4966 ft | 265 kts | 254° |
| 2026-05-05 16:54 | 50.33851 | 9.69807 | 4962 ft | 253 kts | 254° |
| 2026-05-05 16:54 | 50.33360 | 9.67213 | 4968 ft | 239 kts | 254° |
| 2026-05-05 16:54 | 50.32896 | 9.64763 | 4971 ft | 232 kts | 254° |
| 2026-05-05 16:55 | 50.32438 | 9.62340 | 4977 ft | 232 kts | 254° |
| 2026-05-05 16:55 | 50.31981 | 9.59920 | 4980 ft | 232 kts | 254° |
| 2026-05-05 16:55 | 50.31495 | 9.57499 | 4978 ft | 231 kts | 248° |
| 2026-05-05 16:55 | 50.30804 | 9.55196 | 4787 ft | 233 kts | 244° |
| 2026-05-05 16:56 | 50.30068 | 9.52918 | 4537 ft | 232 kts | 244° |
| 2026-05-05 16:56 | 50.29337 | 9.50686 | 4295 ft | 230 kts | 244° |
| 2026-05-05 16:56 | 50.28602 | 9.48449 | 4040 ft | 229 kts | 244° |
| 2026-05-05 16:56 | 50.27884 | 9.46284 | 3960 ft | 225 kts | 244° |
| 2026-05-05 16:57 | 50.27149 | 9.44064 | 3952 ft | 228 kts | 244° |
| 2026-05-05 16:57 | 50.26422 | 9.41865 | 3952 ft | 226 kts | 244° |
| 2026-05-05 16:57 | 50.25700 | 9.39682 | 3949 ft | 227 kts | 244° |
| 2026-05-05 16:57 | 50.24745 | 9.37723 | 3949 ft | 226 kts | 227° |
| 2026-05-05 16:58 | 50.23679 | 9.35898 | 3950 ft | 228 kts | 233° |
| 2026-05-05 16:58 | 50.22736 | 9.33881 | 3950 ft | 227 kts | 237° |
| 2026-05-05 16:58 | 50.21898 | 9.31767 | 3952 ft | 228 kts | 241° |
| 2026-05-05 16:58 | 50.21151 | 9.29598 | 3951 ft | 227 kts | 244° |
| 2026-05-05 16:59 | 50.20458 | 9.27366 | 3951 ft | 226 kts | 246° |
| 2026-05-05 16:59 | 50.19814 | 9.25109 | 3954 ft | 227 kts | 248° |
| 2026-05-05 16:59 | 50.19204 | 9.22832 | 3954 ft | 227 kts | 249° |
| 2026-05-05 16:59 | 50.18619 | 9.20541 | 3957 ft | 227 kts | 249° |
| 2026-05-05 17:00 | 50.18047 | 9.18229 | 3963 ft | 227 kts | 250° |
| 2026-05-05 17:00 | 50.17488 | 9.15916 | 3962 ft | 227 kts | 250° |
| 2026-05-05 17:00 | 50.16935 | 9.13590 | 3958 ft | 228 kts | 251° |
| 2026-05-05 17:00 | 50.16392 | 9.11275 | 3958 ft | 227 kts | 251° |
| 2026-05-05 17:01 | 50.15849 | 9.08936 | 3962 ft | 227 kts | 251° |
| 2026-05-05 17:01 | 50.15315 | 9.06620 | 3963 ft | 226 kts | 251° |
| 2026-05-05 17:01 | 50.14785 | 9.04318 | 3959 ft | 225 kts | 251° |
| 2026-05-05 17:01 | 50.14250 | 9.01994 | 3965 ft | 225 kts | 250° |
| 2026-05-05 17:02 | 50.13719 | 8.99704 | 3960 ft | 225 kts | 250° |
| 2026-05-05 17:02 | 50.13186 | 8.97413 | 3966 ft | 226 kts | 250° |
| 2026-05-05 17:02 | 50.12643 | 8.95093 | 3966 ft | 226 kts | 251° |
| 2026-05-05 17:02 | 50.12104 | 8.92792 | 3969 ft | 227 kts | 250° |
| 2026-05-05 17:03 | 50.11557 | 8.90468 | 3967 ft | 227 kts | 250° |
| 2026-05-05 17:03 | 50.11012 | 8.88157 | 3961 ft | 227 kts | 250° |
| 2026-05-05 17:03 | 50.10478 | 8.85897 | 3954 ft | 219 kts | 250° |
| 2026-05-05 17:03 | 50.09959 | 8.83700 | 3745 ft | 212 kts | 251° |
| 2026-05-05 17:04 | 50.09463 | 8.81602 | 3478 ft | 196 kts | 251° |
| 2026-05-05 17:04 | 50.09011 | 8.79695 | 3254 ft | 180 kts | 251° |
| 2026-05-05 17:04 | 50.08589 | 8.77909 | 3027 ft | 172 kts | 251° |
| 2026-05-05 17:04 | 50.08177 | 8.76169 | 2795 ft | 171 kts | 251° |
| 2026-05-05 17:05 | 50.07769 | 8.74451 | 2563 ft | 169 kts | 251° |
| 2026-05-05 17:05 | 50.07360 | 8.72732 | 2331 ft | 169 kts | 251° |
| 2026-05-05 17:05 | 50.06954 | 8.71020 | 2095 ft | 162 kts | 251° |
| 2026-05-05 17:05 | 50.06570 | 8.69408 | 1872 ft | 153 kts | 251° |
| 2026-05-05 17:06 | 50.06213 | 8.67909 | 1674 ft | 145 kts | 251° |
| 2026-05-05 17:06 | 50.05865 | 8.66445 | 1470 ft | 143 kts | 251° |
| 2026-05-05 17:06 | 50.05511 | 8.64998 | 1245 ft | 142 kts | 251° |
| 2026-05-05 17:06 | 50.05167 | 8.63545 | 1028 ft | 141 kts | 251° |
| 2026-05-05 17:07 | 50.04837 | 8.62114 | 875 ft | 142 kts | 251° |
| 2026-05-05 17:07 | 50.04493 | 8.60668 | 689 ft | 142 kts | 250° |
| 2026-05-05 17:07 | 50.04145 | 8.59228 | 480 ft | 142 kts | 250° |
| 2026-05-05 17:07 | 50.03799 | 8.57796 | 366 ft | 135 kts | 250° |
| 2026-05-05 17:08 | 50.03527 | 8.56651 | 348 ft | 91 kts | 251° |
| 2026-05-05 17:08 | 50.03370 | 8.55983 | 344 ft | 31 kts | 249° |
| 2026-05-05 17:08 | 50.03306 | 8.55727 | 342 ft | 14 kts | 246° |
| 2026-05-05 17:08 | 50.03229 | 8.55656 | 341 ft | 14 kts | 156° |
| 2026-05-05 17:09 | 50.03166 | 8.55748 | 342 ft | 0 kts | 119° |
| 2026-05-05 17:09 | 50.03166 | 8.55749 | 342 ft | 0 kts | 119° |
| 2026-05-05 17:09 | 50.03162 | 8.55760 | 343 ft | 3 kts | 119° |
| 2026-05-05 17:09 | 50.03148 | 8.55844 | 344 ft | 11 kts | 81° |
| 2026-05-05 17:10 | 50.03174 | 8.55964 | 344 ft | 11 kts | 70° |
| 2026-05-05 17:10 | 50.03202 | 8.56082 | 344 ft | 11 kts | 70° |
| 2026-05-05 17:10 | 50.03229 | 8.56202 | 345 ft | 11 kts | 71° |
| 2026-05-05 17:10 | 50.03255 | 8.56312 | 346 ft | 12 kts | 70° |
| 2026-05-05 17:11 | 50.03287 | 8.56446 | 346 ft | 12 kts | 70° |
| 2026-05-05 17:11 | 50.03315 | 8.56565 | 347 ft | 11 kts | 70° |
| 2026-05-05 17:11 | 50.03343 | 8.56683 | 347 ft | 11 kts | 70° |
| 2026-05-05 17:11 | 50.03331 | 8.56789 | 347 ft | 10 kts | 143° |
| 2026-05-05 17:12 | 50.03261 | 8.56840 | 347 ft | 10 kts | 159° |
| 2026-05-05 17:12 | 50.03190 | 8.56882 | 347 ft | 10 kts | 160° |
| 2026-05-05 17:12 | 50.03122 | 8.56921 | 348 ft | 9 kts | 160° |
| 2026-05-05 17:12 | 50.03061 | 8.56957 | 349 ft | 8 kts | 160° |